sensor_id;sensor_type;location;lat;lon;timestamp;P1;durP1;ratioP1;P2;durP2;ratioP2
13989;SDS011;7069;52.528;13.316;2022-12-07T00:01:53;11.50;;;7.93;;
13989;SDS011;7069;52.528;13.316;2022-12-07T00:04:20;12.03;;;8.03;;
13989;SDS011;7069;52.528;13.316;2022-12-07T00:06:50;11.13;;;7.67;;
13989;SDS011;7069;52.528;13.316;2022-12-07T00:09:19;11.53;;;8.43;;
13989;SDS011;7069;52.528;13.316;2022-12-07T00:11:48;10.97;;;7.53;;
13989;SDS011;7069;52.528;13.316;2022-12-07T00:14:16;13.17;;;8.33;;
13989;SDS011;7069;52.528;13.316;2022-12-07T00:16:43;11.30;;;8.67;;
13989;SDS011;7069;52.528;13.316;2022-12-07T00:19:12;13.17;;;9.27;;
13989;SDS011;7069;52.528;13.316;2022-12-07T00:21:40;10.93;;;8.13;;
13989;SDS011;7069;52.528;13.316;2022-12-07T00:24:07;10.90;;;8.73;;
13989;SDS011;7069;52.528;13.316;2022-12-07T00:26:38;9.07;;;6.77;;
13989;SDS011;7069;52.528;13.316;2022-12-07T00:29:06;10.80;;;8.00;;
13989;SDS011;7069;52.528;13.316;2022-12-07T00:31:36;8.27;;;7.17;;
13989;SDS011;7069;52.528;13.316;2022-12-07T00:34:04;9.77;;;7.47;;
13989;SDS011;7069;52.528;13.316;2022-12-07T00:36:32;11.03;;;7.60;;
13989;SDS011;7069;52.528;13.316;2022-12-07T00:38:59;10.33;;;7.50;;
13989;SDS011;7069;52.528;13.316;2022-12-07T00:41:27;10.07;;;7.57;;
13989;SDS011;7069;52.528;13.316;2022-12-07T00:43:56;9.87;;;7.93;;
13989;SDS011;7069;52.528;13.316;2022-12-07T00:46:24;8.97;;;7.07;;
13989;SDS011;7069;52.528;13.316;2022-12-07T00:48:51;10.70;;;6.77;;
13989;SDS011;7069;52.528;13.316;2022-12-07T00:51:19;8.73;;;6.97;;
13989;SDS011;7069;52.528;13.316;2022-12-07T00:53:47;7.50;;;6.00;;
13989;SDS011;7069;52.528;13.316;2022-12-07T00:56:16;9.50;;;7.60;;
13989;SDS011;7069;52.528;13.316;2022-12-07T00:58:44;10.40;;;7.23;;
13989;SDS011;7069;52.528;13.316;2022-12-07T01:01:17;9.20;;;7.13;;
13989;SDS011;7069;52.528;13.316;2022-12-07T01:03:45;10.07;;;6.67;;
13989;SDS011;7069;52.528;13.316;2022-12-07T01:06:13;7.67;;;6.57;;
13989;SDS011;7069;52.528;13.316;2022-12-07T01:08:40;7.10;;;5.97;;
13989;SDS011;7069;52.528;13.316;2022-12-07T01:11:09;8.60;;;7.20;;
13989;SDS011;7069;52.528;13.316;2022-12-07T01:13:38;7.73;;;6.73;;
13989;SDS011;7069;52.528;13.316;2022-12-07T01:16:05;7.13;;;6.40;;
13989;SDS011;7069;52.528;13.316;2022-12-07T01:18:34;9.23;;;6.43;;
13989;SDS011;7069;52.528;13.316;2022-12-07T01:21:02;8.23;;;7.00;;
13989;SDS011;7069;52.528;13.316;2022-12-07T01:23:31;6.77;;;5.83;;
13989;SDS011;7069;52.528;13.316;2022-12-07T01:25:59;6.77;;;5.70;;
13989;SDS011;7069;52.528;13.316;2022-12-07T01:28:27;6.83;;;6.03;;
13989;SDS011;7069;52.528;13.316;2022-12-07T01:30:55;5.90;;;4.87;;
13989;SDS011;7069;52.528;13.316;2022-12-07T01:33:23;6.47;;;5.23;;
13989;SDS011;7069;52.528;13.316;2022-12-07T01:35:51;5.17;;;4.27;;
13989;SDS011;7069;52.528;13.316;2022-12-07T01:38:18;6.57;;;4.60;;
13989;SDS011;7069;52.528;13.316;2022-12-07T01:40:45;4.87;;;4.23;;
13989;SDS011;7069;52.528;13.316;2022-12-07T01:43:14;5.23;;;4.70;;
13989;SDS011;7069;52.528;13.316;2022-12-07T01:45:43;4.90;;;4.40;;
13989;SDS011;7069;52.528;13.316;2022-12-07T01:48:11;6.20;;;5.03;;
13989;SDS011;7069;52.528;13.316;2022-12-07T01:50:39;6.43;;;4.27;;
13989;SDS011;7069;52.528;13.316;2022-12-07T01:53:08;5.03;;;4.60;;
13989;SDS011;7069;52.528;13.316;2022-12-07T01:55:37;6.33;;;4.93;;
13989;SDS011;7069;52.528;13.316;2022-12-07T01:58:06;5.77;;;4.77;;
13989;SDS011;7069;52.528;13.316;2022-12-07T02:00:34;6.43;;;5.07;;
13989;SDS011;7069;52.528;13.316;2022-12-07T02:03:03;5.13;;;4.33;;
13989;SDS011;7069;52.528;13.316;2022-12-07T02:05:31;6.77;;;4.70;;
13989;SDS011;7069;52.528;13.316;2022-12-07T02:07:58;6.87;;;4.50;;
13989;SDS011;7069;52.528;13.316;2022-12-07T02:10:28;5.87;;;5.10;;
13989;SDS011;7069;52.528;13.316;2022-12-07T02:12:58;5.70;;;4.67;;
13989;SDS011;7069;52.528;13.316;2022-12-07T02:15:28;5.40;;;4.67;;
13989;SDS011;7069;52.528;13.316;2022-12-07T02:18:01;7.00;;;5.67;;
13989;SDS011;7069;52.528;13.316;2022-12-07T02:20:32;4.40;;;3.93;;
13989;SDS011;7069;52.528;13.316;2022-12-07T02:23:05;7.13;;;4.83;;
13989;SDS011;7069;52.528;13.316;2022-12-07T02:25:50;6.70;;;4.90;;
13989;SDS011;7069;52.528;13.316;2022-12-07T02:28:26;5.47;;;4.90;;
13989;SDS011;7069;52.528;13.316;2022-12-07T02:30:58;5.13;;;4.40;;
13989;SDS011;7069;52.528;13.316;2022-12-07T02:33:30;6.10;;;5.50;;
13989;SDS011;7069;52.528;13.316;2022-12-07T02:36:00;4.97;;;4.30;;
13989;SDS011;7069;52.528;13.316;2022-12-07T02:38:31;5.67;;;4.97;;
13989;SDS011;7069;52.528;13.316;2022-12-07T02:41:04;6.10;;;5.10;;
13989;SDS011;7069;52.528;13.316;2022-12-07T02:43:33;6.87;;;5.03;;
13989;SDS011;7069;52.528;13.316;2022-12-07T02:46:04;7.03;;;5.37;;
13989;SDS011;7069;52.528;13.316;2022-12-07T02:48:32;6.63;;;5.80;;
13989;SDS011;7069;52.528;13.316;2022-12-07T02:51:00;5.40;;;4.90;;
13989;SDS011;7069;52.528;13.316;2022-12-07T02:53:31;5.50;;;4.87;;
13989;SDS011;7069;52.528;13.316;2022-12-07T02:55:59;5.87;;;5.07;;
13989;SDS011;7069;52.528;13.316;2022-12-07T02:58:30;6.80;;;5.23;;
13989;SDS011;7069;52.528;13.316;2022-12-07T03:01:04;6.33;;;5.63;;
13989;SDS011;7069;52.528;13.316;2022-12-07T03:03:38;7.93;;;6.20;;
13989;SDS011;7069;52.528;13.316;2022-12-07T03:06:08;8.57;;;6.60;;
13989;SDS011;7069;52.528;13.316;2022-12-07T03:08:43;7.87;;;7.07;;
13989;SDS011;7069;52.528;13.316;2022-12-07T03:11:12;8.90;;;6.60;;
13989;SDS011;7069;52.528;13.316;2022-12-07T03:13:42;9.60;;;6.50;;
13989;SDS011;7069;52.528;13.316;2022-12-07T03:16:16;8.97;;;6.80;;
13989;SDS011;7069;52.528;13.316;2022-12-07T03:18:46;9.80;;;7.60;;
13989;SDS011;7069;52.528;13.316;2022-12-07T03:21:15;8.37;;;6.90;;
13989;SDS011;7069;52.528;13.316;2022-12-07T03:23:44;10.33;;;7.77;;
13989;SDS011;7069;52.528;13.316;2022-12-07T03:26:13;8.50;;;7.10;;
13989;SDS011;7069;52.528;13.316;2022-12-07T03:28:42;11.33;;;7.73;;
13989;SDS011;7069;52.528;13.316;2022-12-07T03:31:10;10.80;;;7.73;;
13989;SDS011;7069;52.528;13.316;2022-12-07T03:33:42;10.03;;;7.37;;
13989;SDS011;7069;52.528;13.316;2022-12-07T03:36:14;10.80;;;7.83;;
13989;SDS011;7069;52.528;13.316;2022-12-07T03:38:46;10.00;;;7.90;;
13989;SDS011;7069;52.528;13.316;2022-12-07T03:41:16;12.00;;;7.93;;
13989;SDS011;7069;52.528;13.316;2022-12-07T03:43:46;11.97;;;8.77;;
13989;SDS011;7069;52.528;13.316;2022-12-07T03:46:15;12.13;;;8.40;;
13989;SDS011;7069;52.528;13.316;2022-12-07T03:48:48;12.13;;;8.23;;
13989;SDS011;7069;52.528;13.316;2022-12-07T03:51:21;11.07;;;8.33;;
13989;SDS011;7069;52.528;13.316;2022-12-07T03:53:53;10.80;;;7.97;;
13989;SDS011;7069;52.528;13.316;2022-12-07T03:56:21;12.57;;;9.43;;
13989;SDS011;7069;52.528;13.316;2022-12-07T03:58:49;14.70;;;10.57;;
13989;SDS011;7069;52.528;13.316;2022-12-07T04:01:17;12.07;;;9.23;;
13989;SDS011;7069;52.528;13.316;2022-12-07T04:03:44;13.07;;;9.03;;
13989;SDS011;7069;52.528;13.316;2022-12-07T04:06:13;12.33;;;9.53;;
13989;SDS011;7069;52.528;13.316;2022-12-07T04:08:40;13.53;;;10.73;;
13989;SDS011;7069;52.528;13.316;2022-12-07T04:11:06;16.50;;;10.63;;
13989;SDS011;7069;52.528;13.316;2022-12-07T04:13:33;14.17;;;9.97;;
13989;SDS011;7069;52.528;13.316;2022-12-07T04:16:20;17.40;;;9.37;;
13989;SDS011;7069;52.528;13.316;2022-12-07T04:18:47;14.80;;;10.53;;
13989;SDS011;7069;52.528;13.316;2022-12-07T04:21:15;16.93;;;11.40;;
13989;SDS011;7069;52.528;13.316;2022-12-07T04:23:42;16.07;;;10.93;;
13989;SDS011;7069;52.528;13.316;2022-12-07T04:26:09;20.80;;;12.37;;
13989;SDS011;7069;52.528;13.316;2022-12-07T04:28:36;15.57;;;11.17;;
13989;SDS011;7069;52.528;13.316;2022-12-07T04:31:03;19.90;;;12.23;;
13989;SDS011;7069;52.528;13.316;2022-12-07T04:33:30;13.07;;;10.43;;
13989;SDS011;7069;52.528;13.316;2022-12-07T04:35:56;17.10;;;12.67;;
13989;SDS011;7069;52.528;13.316;2022-12-07T04:38:25;18.97;;;13.73;;
13989;SDS011;7069;52.528;13.316;2022-12-07T04:40:52;18.53;;;13.03;;
13989;SDS011;7069;52.528;13.316;2022-12-07T04:43:19;17.60;;;12.00;;
13989;SDS011;7069;52.528;13.316;2022-12-07T04:45:46;20.70;;;12.27;;
13989;SDS011;7069;52.528;13.316;2022-12-07T04:48:13;23.90;;;14.20;;
13989;SDS011;7069;52.528;13.316;2022-12-07T04:50:41;22.30;;;14.73;;
13989;SDS011;7069;52.528;13.316;2022-12-07T04:53:07;23.57;;;15.27;;
13989;SDS011;7069;52.528;13.316;2022-12-07T04:55:36;26.10;;;14.53;;
13989;SDS011;7069;52.528;13.316;2022-12-07T04:58:03;23.27;;;15.67;;
13989;SDS011;7069;52.528;13.316;2022-12-07T05:00:30;23.10;;;15.20;;
13989;SDS011;7069;52.528;13.316;2022-12-07T05:02:57;25.07;;;16.13;;
13989;SDS011;7069;52.528;13.316;2022-12-07T05:05:23;27.77;;;18.37;;
13989;SDS011;7069;52.528;13.316;2022-12-07T05:07:50;29.00;;;17.57;;
13989;SDS011;7069;52.528;13.316;2022-12-07T05:10:17;26.77;;;18.70;;
13989;SDS011;7069;52.528;13.316;2022-12-07T05:12:46;24.23;;;17.07;;
13989;SDS011;7069;52.528;13.316;2022-12-07T05:15:13;30.70;;;16.60;;
13989;SDS011;7069;52.528;13.316;2022-12-07T05:17:40;21.10;;;16.07;;
13989;SDS011;7069;52.528;13.316;2022-12-07T05:20:07;22.47;;;16.07;;
13989;SDS011;7069;52.528;13.316;2022-12-07T05:22:35;21.40;;;15.97;;
13989;SDS011;7069;52.528;13.316;2022-12-07T05:25:02;23.70;;;16.13;;
13989;SDS011;7069;52.528;13.316;2022-12-07T05:27:29;23.60;;;17.50;;
13989;SDS011;7069;52.528;13.316;2022-12-07T05:29:58;21.47;;;15.90;;
13989;SDS011;7069;52.528;13.316;2022-12-07T05:32:24;22.93;;;16.30;;
13989;SDS011;7069;52.528;13.316;2022-12-07T05:34:51;26.67;;;17.13;;
13989;SDS011;7069;52.528;13.316;2022-12-07T05:37:19;25.10;;;16.60;;
13989;SDS011;7069;52.528;13.316;2022-12-07T05:39:46;27.10;;;16.57;;
13989;SDS011;7069;52.528;13.316;2022-12-07T05:42:13;27.30;;;17.00;;
13989;SDS011;7069;52.528;13.316;2022-12-07T05:44:42;25.90;;;17.33;;
13989;SDS011;7069;52.528;13.316;2022-12-07T05:47:11;24.77;;;15.53;;
13989;SDS011;7069;52.528;13.316;2022-12-07T05:49:39;24.73;;;16.97;;
13989;SDS011;7069;52.528;13.316;2022-12-07T05:52:05;24.23;;;15.57;;
13989;SDS011;7069;52.528;13.316;2022-12-07T05:54:33;23.73;;;15.70;;
13989;SDS011;7069;52.528;13.316;2022-12-07T05:57:00;24.87;;;16.63;;
13989;SDS011;7069;52.528;13.316;2022-12-07T05:59:27;22.07;;;14.93;;
13989;SDS011;7069;52.528;13.316;2022-12-07T06:01:53;25.73;;;17.30;;
13989;SDS011;7069;52.528;13.316;2022-12-07T06:04:23;23.77;;;16.10;;
13989;SDS011;7069;52.528;13.316;2022-12-07T06:06:51;28.83;;;17.93;;
13989;SDS011;7069;52.528;13.316;2022-12-07T06:09:18;27.80;;;16.67;;
13989;SDS011;7069;52.528;13.316;2022-12-07T06:11:45;27.90;;;17.50;;
13989;SDS011;7069;52.528;13.316;2022-12-07T06:14:30;26.43;;;16.77;;
13989;SDS011;7069;52.528;13.316;2022-12-07T06:16:57;22.07;;;15.87;;
13989;SDS011;7069;52.528;13.316;2022-12-07T06:19:25;28.13;;;16.77;;
13989;SDS011;7069;52.528;13.316;2022-12-07T06:21:53;27.23;;;16.23;;
13989;SDS011;7069;52.528;13.316;2022-12-07T06:24:20;21.90;;;14.73;;
13989;SDS011;7069;52.528;13.316;2022-12-07T06:26:47;21.53;;;14.73;;
13989;SDS011;7069;52.528;13.316;2022-12-07T06:29:14;23.53;;;14.80;;
13989;SDS011;7069;52.528;13.316;2022-12-07T06:31:41;20.07;;;14.27;;
13989;SDS011;7069;52.528;13.316;2022-12-07T06:34:09;27.97;;;17.53;;
13989;SDS011;7069;52.528;13.316;2022-12-07T06:36:38;25.13;;;15.73;;
13989;SDS011;7069;52.528;13.316;2022-12-07T06:39:05;24.63;;;15.13;;
13989;SDS011;7069;52.528;13.316;2022-12-07T06:41:34;27.13;;;16.73;;
13989;SDS011;7069;52.528;13.316;2022-12-07T06:44:01;30.47;;;18.93;;
13989;SDS011;7069;52.528;13.316;2022-12-07T06:46:28;25.03;;;16.03;;
13989;SDS011;7069;52.528;13.316;2022-12-07T06:48:54;31.10;;;18.00;;
13989;SDS011;7069;52.528;13.316;2022-12-07T06:51:22;28.73;;;17.03;;
13989;SDS011;7069;52.528;13.316;2022-12-07T06:53:50;25.73;;;16.70;;
13989;SDS011;7069;52.528;13.316;2022-12-07T06:56:17;32.03;;;18.03;;
13989;SDS011;7069;52.528;13.316;2022-12-07T06:58:44;33.40;;;18.07;;
13989;SDS011;7069;52.528;13.316;2022-12-07T07:01:11;30.80;;;18.47;;
13989;SDS011;7069;52.528;13.316;2022-12-07T07:03:39;32.83;;;18.83;;
13989;SDS011;7069;52.528;13.316;2022-12-07T07:06:06;22.80;;;17.13;;
13989;SDS011;7069;52.528;13.316;2022-12-07T07:08:34;30.53;;;18.47;;
13989;SDS011;7069;52.528;13.316;2022-12-07T07:11:02;30.17;;;18.43;;
13989;SDS011;7069;52.528;13.316;2022-12-07T07:13:29;31.07;;;20.23;;
13989;SDS011;7069;52.528;13.316;2022-12-07T07:15:56;30.13;;;18.80;;
13989;SDS011;7069;52.528;13.316;2022-12-07T07:18:24;31.33;;;18.33;;
13989;SDS011;7069;52.528;13.316;2022-12-07T07:20:51;31.33;;;20.30;;
13989;SDS011;7069;52.528;13.316;2022-12-07T07:23:18;30.47;;;19.07;;
13989;SDS011;7069;52.528;13.316;2022-12-07T07:25:46;26.17;;;16.97;;
13989;SDS011;7069;52.528;13.316;2022-12-07T07:28:14;26.87;;;16.90;;
13989;SDS011;7069;52.528;13.316;2022-12-07T07:30:41;24.87;;;16.60;;
13989;SDS011;7069;52.528;13.316;2022-12-07T07:33:09;28.73;;;17.00;;
13989;SDS011;7069;52.528;13.316;2022-12-07T07:35:36;24.43;;;16.47;;
13989;SDS011;7069;52.528;13.316;2022-12-07T07:38:04;21.60;;;15.43;;
13989;SDS011;7069;52.528;13.316;2022-12-07T07:40:31;21.17;;;13.30;;
13989;SDS011;7069;52.528;13.316;2022-12-07T07:42:58;26.93;;;13.57;;
13989;SDS011;7069;52.528;13.316;2022-12-07T07:45:26;21.77;;;14.37;;
13989;SDS011;7069;52.528;13.316;2022-12-07T07:47:53;16.50;;;12.60;;
13989;SDS011;7069;52.528;13.316;2022-12-07T07:50:20;23.70;;;13.57;;
13989;SDS011;7069;52.528;13.316;2022-12-07T07:52:48;20.47;;;11.57;;
13989;SDS011;7069;52.528;13.316;2022-12-07T07:55:15;19.10;;;12.20;;
13989;SDS011;7069;52.528;13.316;2022-12-07T07:57:42;18.20;;;10.30;;
13989;SDS011;7069;52.528;13.316;2022-12-07T08:00:10;15.73;;;11.30;;
13989;SDS011;7069;52.528;13.316;2022-12-07T08:02:40;18.43;;;12.10;;
13989;SDS011;7069;52.528;13.316;2022-12-07T08:05:08;14.93;;;11.27;;
13989;SDS011;7069;52.528;13.316;2022-12-07T08:07:35;15.00;;;10.50;;
13989;SDS011;7069;52.528;13.316;2022-12-07T08:10:02;17.83;;;11.20;;
13989;SDS011;7069;52.528;13.316;2022-12-07T08:12:30;14.33;;;10.87;;
13989;SDS011;7069;52.528;13.316;2022-12-07T08:14:56;16.27;;;9.93;;
13989;SDS011;7069;52.528;13.316;2022-12-07T08:17:23;12.57;;;9.60;;
13989;SDS011;7069;52.528;13.316;2022-12-07T08:19:51;13.23;;;8.70;;
13989;SDS011;7069;52.528;13.316;2022-12-07T08:22:18;9.47;;;7.70;;
13989;SDS011;7069;52.528;13.316;2022-12-07T08:24:45;11.00;;;8.43;;
13989;SDS011;7069;52.528;13.316;2022-12-07T08:27:12;11.07;;;8.43;;
13989;SDS011;7069;52.528;13.316;2022-12-07T08:29:39;11.20;;;7.37;;
13989;SDS011;7069;52.528;13.316;2022-12-07T08:32:06;8.80;;;6.47;;
13989;SDS011;7069;52.528;13.316;2022-12-07T08:34:33;8.50;;;6.07;;
13989;SDS011;7069;52.528;13.316;2022-12-07T08:37:03;10.40;;;6.23;;
13989;SDS011;7069;52.528;13.316;2022-12-07T08:39:31;6.00;;;5.40;;
13989;SDS011;7069;52.528;13.316;2022-12-07T08:41:57;5.33;;;4.60;;
13989;SDS011;7069;52.528;13.316;2022-12-07T08:44:24;6.17;;;4.70;;
13989;SDS011;7069;52.528;13.316;2022-12-07T08:46:52;7.90;;;4.63;;
13989;SDS011;7069;52.528;13.316;2022-12-07T08:49:22;5.13;;;4.63;;
13989;SDS011;7069;52.528;13.316;2022-12-07T08:51:50;3.67;;;3.33;;
13989;SDS011;7069;52.528;13.316;2022-12-07T08:54:19;3.67;;;3.20;;
13989;SDS011;7069;52.528;13.316;2022-12-07T08:56:46;4.00;;;2.73;;
13989;SDS011;7069;52.528;13.316;2022-12-07T08:59:14;4.07;;;2.73;;
13989;SDS011;7069;52.528;13.316;2022-12-07T09:01:43;2.80;;;2.43;;
13989;SDS011;7069;52.528;13.316;2022-12-07T09:04:09;2.90;;;2.60;;
13989;SDS011;7069;52.528;13.316;2022-12-07T09:06:36;2.57;;;2.30;;
13989;SDS011;7069;52.528;13.316;2022-12-07T09:09:04;3.23;;;2.70;;
13989;SDS011;7069;52.528;13.316;2022-12-07T09:11:32;2.37;;;2.17;;
13989;SDS011;7069;52.528;13.316;2022-12-07T09:13:59;4.40;;;2.40;;
13989;SDS011;7069;52.528;13.316;2022-12-07T09:16:26;2.10;;;2.00;;
13989;SDS011;7069;52.528;13.316;2022-12-07T09:18:53;2.30;;;1.97;;
13989;SDS011;7069;52.528;13.316;2022-12-07T09:21:20;4.47;;;2.13;;
13989;SDS011;7069;52.528;13.316;2022-12-07T09:23:47;2.50;;;2.17;;
13989;SDS011;7069;52.528;13.316;2022-12-07T09:26:14;2.63;;;2.43;;
13989;SDS011;7069;52.528;13.316;2022-12-07T09:28:42;2.57;;;2.37;;
13989;SDS011;7069;52.528;13.316;2022-12-07T09:31:09;3.10;;;2.20;;
13989;SDS011;7069;52.528;13.316;2022-12-07T09:33:36;2.47;;;2.37;;
13989;SDS011;7069;52.528;13.316;2022-12-07T09:36:03;5.53;;;2.27;;
13989;SDS011;7069;52.528;13.316;2022-12-07T09:38:30;4.50;;;3.23;;
13989;SDS011;7069;52.528;13.316;2022-12-07T09:40:57;4.10;;;2.87;;
13989;SDS011;7069;52.528;13.316;2022-12-07T09:43:30;3.97;;;2.47;;
13989;SDS011;7069;52.528;13.316;2022-12-07T09:45:59;2.30;;;2.10;;
13989;SDS011;7069;52.528;13.316;2022-12-07T09:48:29;3.63;;;1.63;;
13989;SDS011;7069;52.528;13.316;2022-12-07T09:50:58;2.13;;;1.93;;
13989;SDS011;7069;52.528;13.316;2022-12-07T09:53:27;3.07;;;1.73;;
13989;SDS011;7069;52.528;13.316;2022-12-07T09:55:55;4.07;;;2.20;;
13989;SDS011;7069;52.528;13.316;2022-12-07T09:58:24;2.03;;;1.73;;
13989;SDS011;7069;52.528;13.316;2022-12-07T10:00:52;2.73;;;2.47;;
13989;SDS011;7069;52.528;13.316;2022-12-07T10:03:22;3.57;;;2.47;;
13989;SDS011;7069;52.528;13.316;2022-12-07T10:05:49;1.97;;;1.83;;
13989;SDS011;7069;52.528;13.316;2022-12-07T10:08:17;3.20;;;2.60;;
13989;SDS011;7069;52.528;13.316;2022-12-07T10:10:44;2.80;;;2.53;;
13989;SDS011;7069;52.528;13.316;2022-12-07T10:13:18;2.50;;;2.30;;
13989;SDS011;7069;52.528;13.316;2022-12-07T10:15:47;2.50;;;2.30;;
13989;SDS011;7069;52.528;13.316;2022-12-07T10:18:20;3.37;;;2.70;;
13989;SDS011;7069;52.528;13.316;2022-12-07T10:21:08;2.40;;;2.10;;
13989;SDS011;7069;52.528;13.316;2022-12-07T10:23:38;2.50;;;2.30;;
13989;SDS011;7069;52.528;13.316;2022-12-07T10:28:53;4.33;;;2.43;;
13989;SDS011;7069;52.528;13.316;2022-12-07T10:31:21;2.43;;;2.23;;
13989;SDS011;7069;52.528;13.316;2022-12-07T10:33:51;2.37;;;2.17;;
13989;SDS011;7069;52.528;13.316;2022-12-07T10:36:20;2.30;;;1.77;;
13989;SDS011;7069;52.528;13.316;2022-12-07T10:38:49;3.63;;;1.90;;
13989;SDS011;7069;52.528;13.316;2022-12-07T10:41:17;2.77;;;2.57;;
13989;SDS011;7069;52.528;13.316;2022-12-07T10:43:46;3.63;;;2.30;;
13989;SDS011;7069;52.528;13.316;2022-12-07T10:46:24;4.90;;;3.07;;
13989;SDS011;7069;52.528;13.316;2022-12-07T10:49:01;3.57;;;3.23;;
13989;SDS011;7069;52.528;13.316;2022-12-07T10:51:33;2.90;;;2.53;;
13989;SDS011;7069;52.528;13.316;2022-12-07T10:54:09;4.97;;;2.57;;
13989;SDS011;7069;52.528;13.316;2022-12-07T10:59:28;4.07;;;3.23;;
13989;SDS011;7069;52.528;13.316;2022-12-07T11:02:16;4.03;;;3.63;;
13989;SDS011;7069;52.528;13.316;2022-12-07T11:04:56;3.43;;;3.07;;
13989;SDS011;7069;52.528;13.316;2022-12-07T11:07:32;7.00;;;3.23;;
13989;SDS011;7069;52.528;13.316;2022-12-07T11:10:05;5.13;;;3.33;;
13989;SDS011;7069;52.528;13.316;2022-12-07T11:12:40;5.13;;;3.90;;
13989;SDS011;7069;52.528;13.316;2022-12-07T11:15:17;5.87;;;4.10;;
13989;SDS011;7069;52.528;13.316;2022-12-07T11:17:48;6.93;;;4.60;;
13989;SDS011;7069;52.528;13.316;2022-12-07T11:20:25;4.77;;;3.67;;
13989;SDS011;7069;52.528;13.316;2022-12-07T11:22:57;5.13;;;4.03;;
13989;SDS011;7069;52.528;13.316;2022-12-07T11:25:31;5.27;;;3.73;;
13989;SDS011;7069;52.528;13.316;2022-12-07T11:28:06;5.47;;;4.30;;
13989;SDS011;7069;52.528;13.316;2022-12-07T11:30:42;6.97;;;3.77;;
13989;SDS011;7069;52.528;13.316;2022-12-07T11:33:16;4.03;;;3.63;;
13989;SDS011;7069;52.528;13.316;2022-12-07T11:35:49;5.87;;;3.77;;
13989;SDS011;7069;52.528;13.316;2022-12-07T11:38:21;4.47;;;3.80;;
13989;SDS011;7069;52.528;13.316;2022-12-07T11:40:50;6.93;;;3.87;;
13989;SDS011;7069;52.528;13.316;2022-12-07T11:43:20;4.03;;;3.63;;
13989;SDS011;7069;52.528;13.316;2022-12-07T11:45:51;4.30;;;3.93;;
13989;SDS011;7069;52.528;13.316;2022-12-07T11:48:24;4.33;;;3.60;;
13989;SDS011;7069;52.528;13.316;2022-12-07T11:50:57;4.07;;;3.73;;
13989;SDS011;7069;52.528;13.316;2022-12-07T11:53:26;7.00;;;4.40;;
13989;SDS011;7069;52.528;13.316;2022-12-07T11:55:57;4.37;;;3.40;;
13989;SDS011;7069;52.528;13.316;2022-12-07T11:58:33;4.23;;;3.20;;
13989;SDS011;7069;52.528;13.316;2022-12-07T12:01:08;5.50;;;3.83;;
13989;SDS011;7069;52.528;13.316;2022-12-07T12:03:41;6.47;;;4.03;;
13989;SDS011;7069;52.528;13.316;2022-12-07T12:06:11;5.13;;;3.57;;
13989;SDS011;7069;52.528;13.316;2022-12-07T12:08:39;4.33;;;3.57;;
13989;SDS011;7069;52.528;13.316;2022-12-07T12:11:13;3.40;;;3.03;;
13989;SDS011;7069;52.528;13.316;2022-12-07T12:13:56;4.63;;;4.23;;
13989;SDS011;7069;52.528;13.316;2022-12-07T12:16:38;4.23;;;3.60;;
13989;SDS011;7069;52.528;13.316;2022-12-07T12:19:17;5.30;;;3.50;;
13989;SDS011;7069;52.528;13.316;2022-12-07T12:21:53;5.60;;;2.90;;
13989;SDS011;7069;52.528;13.316;2022-12-07T12:24:22;7.43;;;3.43;;
13989;SDS011;7069;52.528;13.316;2022-12-07T12:26:52;5.23;;;3.30;;
13989;SDS011;7069;52.528;13.316;2022-12-07T12:29:21;5.33;;;3.20;;
13989;SDS011;7069;52.528;13.316;2022-12-07T12:32:04;5.30;;;2.77;;
13989;SDS011;7069;52.528;13.316;2022-12-07T12:34:39;2.33;;;2.13;;
13989;SDS011;7069;52.528;13.316;2022-12-07T12:51:59;2.30;;;2.03;;
13989;SDS011;7069;52.528;13.316;2022-12-07T12:54:29;3.70;;;2.07;;
13989;SDS011;7069;52.528;13.316;2022-12-07T12:56:59;3.83;;;2.50;;
13989;SDS011;7069;52.528;13.316;2022-12-07T12:59:30;3.43;;;2.47;;
13989;SDS011;7069;52.528;13.316;2022-12-07T13:02:09;3.53;;;2.27;;
13989;SDS011;7069;52.528;13.316;2022-12-07T13:10:20;4.23;;;2.43;;
13989;SDS011;7069;52.528;13.316;2022-12-07T13:12:59;4.10;;;2.40;;
13989;SDS011;7069;52.528;13.316;2022-12-07T13:15:34;3.40;;;2.30;;
13989;SDS011;7069;52.528;13.316;2022-12-07T13:18:03;3.90;;;2.53;;
13989;SDS011;7069;52.528;13.316;2022-12-07T13:20:46;14.83;;;3.30;;
13989;SDS011;7069;52.528;13.316;2022-12-07T13:23:15;8.67;;;2.13;;
13989;SDS011;7069;52.528;13.316;2022-12-07T13:25:51;5.17;;;2.27;;
13989;SDS011;7069;52.528;13.316;2022-12-07T13:28:23;5.53;;;2.10;;
13989;SDS011;7069;52.528;13.316;2022-12-07T13:33:41;3.07;;;2.03;;
13989;SDS011;7069;52.528;13.316;2022-12-07T13:36:12;1.97;;;1.77;;
13989;SDS011;7069;52.528;13.316;2022-12-07T13:38:48;4.80;;;2.03;;
13989;SDS011;7069;52.528;13.316;2022-12-07T13:41:17;3.63;;;2.20;;
13989;SDS011;7069;52.528;13.316;2022-12-07T13:43:58;4.90;;;2.33;;
13989;SDS011;7069;52.528;13.316;2022-12-07T13:46:31;4.03;;;2.57;;
13989;SDS011;7069;52.528;13.316;2022-12-07T13:49:03;2.30;;;1.97;;
13989;SDS011;7069;52.528;13.316;2022-12-07T13:51:46;4.33;;;2.33;;
13989;SDS011;7069;52.528;13.316;2022-12-07T13:54:13;3.90;;;2.10;;
13989;SDS011;7069;52.528;13.316;2022-12-07T13:56:41;5.17;;;2.30;;
13989;SDS011;7069;52.528;13.316;2022-12-07T13:59:12;5.33;;;2.70;;
13989;SDS011;7069;52.528;13.316;2022-12-07T14:01:40;4.63;;;2.00;;
13989;SDS011;7069;52.528;13.316;2022-12-07T14:04:29;4.53;;;1.83;;
13989;SDS011;7069;52.528;13.316;2022-12-07T14:06:58;6.07;;;1.60;;
13989;SDS011;7069;52.528;13.316;2022-12-07T14:09:27;2.83;;;1.60;;
13989;SDS011;7069;52.528;13.316;2022-12-07T14:11:55;4.27;;;1.67;;
13989;SDS011;7069;52.528;13.316;2022-12-07T14:14:24;3.47;;;1.90;;
13989;SDS011;7069;52.528;13.316;2022-12-07T14:16:56;6.80;;;2.03;;
13989;SDS011;7069;52.528;13.316;2022-12-07T14:19:44;7.63;;;2.97;;
13989;SDS011;7069;52.528;13.316;2022-12-07T14:22:19;3.03;;;2.10;;
13989;SDS011;7069;52.528;13.316;2022-12-07T14:25:14;5.63;;;2.47;;
13989;SDS011;7069;52.528;13.316;2022-12-07T14:27:48;10.37;;;2.80;;
13989;SDS011;7069;52.528;13.316;2022-12-07T14:30:27;6.17;;;1.93;;
13989;SDS011;7069;52.528;13.316;2022-12-07T14:32:57;2.77;;;1.73;;
13989;SDS011;7069;52.528;13.316;2022-12-07T14:35:25;2.07;;;1.80;;
13989;SDS011;7069;52.528;13.316;2022-12-07T14:37:55;5.27;;;3.00;;
13989;SDS011;7069;52.528;13.316;2022-12-07T14:40:23;2.63;;;1.90;;
13989;SDS011;7069;52.528;13.316;2022-12-07T14:42:52;3.37;;;1.83;;
13989;SDS011;7069;52.528;13.316;2022-12-07T14:45:22;2.27;;;2.03;;
13989;SDS011;7069;52.528;13.316;2022-12-07T14:47:50;3.37;;;1.80;;
13989;SDS011;7069;52.528;13.316;2022-12-07T14:50:18;5.77;;;2.03;;
13989;SDS011;7069;52.528;13.316;2022-12-07T14:52:46;5.77;;;2.23;;
13989;SDS011;7069;52.528;13.316;2022-12-07T14:55:16;3.00;;;1.80;;
13989;SDS011;7069;52.528;13.316;2022-12-07T14:57:49;6.83;;;2.57;;
13989;SDS011;7069;52.528;13.316;2022-12-07T15:00:16;3.03;;;1.97;;
13989;SDS011;7069;52.528;13.316;2022-12-07T15:02:45;6.43;;;2.10;;
13989;SDS011;7069;52.528;13.316;2022-12-07T15:05:13;6.60;;;2.17;;
13989;SDS011;7069;52.528;13.316;2022-12-07T15:07:40;4.63;;;2.50;;
13989;SDS011;7069;52.528;13.316;2022-12-07T15:10:09;2.70;;;1.87;;
13989;SDS011;7069;52.528;13.316;2022-12-07T15:12:41;4.90;;;2.33;;
13989;SDS011;7069;52.528;13.316;2022-12-07T15:15:08;3.20;;;1.90;;
13989;SDS011;7069;52.528;13.316;2022-12-07T15:17:35;7.07;;;1.77;;
13989;SDS011;7069;52.528;13.316;2022-12-07T15:20:02;3.33;;;1.73;;
13989;SDS011;7069;52.528;13.316;2022-12-07T15:22:31;3.63;;;1.60;;